createdAt,value
2022-09-29T00:00:07.978Z,8.83
2022-09-29T00:05:30.715Z,8.84
2022-09-29T00:10:33.471Z,8.87
2022-09-29T00:15:36.181Z,8.88
2022-09-29T00:20:39.142Z,8.86
2022-09-29T00:25:42.448Z,8.86
2022-09-29T00:30:45.253Z,8.81
2022-09-29T00:35:59.049Z,8.80
2022-09-29T00:41:02.021Z,8.76
2022-09-29T00:46:07.343Z,8.69
2022-09-29T00:51:10.280Z,8.67
2022-09-29T00:56:14.478Z,8.60
2022-09-29T01:01:17.222Z,8.57
2022-09-29T01:06:22.513Z,8.56
2022-09-29T01:11:25.329Z,8.53
2022-09-29T01:16:28.172Z,8.58
2022-09-29T01:21:59.606Z,8.56
2022-09-29T01:27:32.986Z,8.58
2022-09-29T01:33:07.008Z,8.55
2022-09-29T01:38:34.189Z,8.49
2022-09-29T01:44:04.592Z,8.41
2022-09-29T01:49:07.504Z,8.33
2022-09-29T01:54:15.710Z,8.30
2022-09-29T01:59:44.160Z,8.26
2022-09-29T02:04:51.304Z,8.22
2022-09-29T02:10:01.991Z,8.20
2022-09-29T02:15:07.665Z,8.22
2022-09-29T02:20:12.076Z,8.23
2022-09-29T02:25:16.785Z,8.21
2022-09-29T02:30:19.579Z,8.20
2022-09-29T02:35:22.482Z,8.21
2022-09-29T02:40:37.636Z,8.20
2022-09-29T02:46:07.255Z,8.18
2022-09-29T02:51:36.916Z,8.13
2022-09-29T02:57:12.276Z,8.08
2022-09-29T03:02:16.407Z,7.99
2022-09-29T03:07:20.547Z,7.93
2022-09-29T03:12:24.146Z,7.91
2022-09-29T03:17:26.928Z,7.90
2022-09-29T03:22:29.734Z,7.91
2022-09-29T03:27:33.483Z,7.94
2022-09-29T03:32:36.238Z,7.96
2022-09-29T03:37:38.958Z,7.91
2022-09-29T03:42:41.682Z,7.88
2022-09-29T03:47:44.498Z,7.85
2022-09-29T03:52:47.252Z,7.81
2022-09-29T03:57:50.043Z,7.78
2022-09-29T04:02:55.078Z,7.72
2022-09-29T04:07:57.966Z,7.68
2022-09-29T04:13:00.826Z,7.69
2022-09-29T04:18:03.707Z,7.63
2022-09-29T04:23:06.716Z,7.58
2022-09-29T04:28:09.513Z,7.56
2022-09-29T04:33:12.281Z,7.55
2022-09-29T04:38:15.024Z,7.56
2022-09-29T04:43:17.817Z,7.60
2022-09-29T04:48:20.663Z,7.64
2022-09-29T04:53:23.368Z,7.68
2022-09-29T04:58:26.183Z,7.68
2022-09-29T05:03:29.301Z,7.68
2022-09-29T05:08:32.352Z,7.69
2022-09-29T05:13:35.837Z,7.67
2022-09-29T05:18:39.480Z,7.63
2022-09-29T05:23:42.879Z,7.66
2022-09-29T05:28:47.176Z,7.74
2022-09-29T05:33:50.111Z,7.82
2022-09-29T05:38:53.594Z,7.92
2022-09-29T05:43:56.553Z,7.95
2022-09-29T05:48:59.330Z,7.96
2022-09-29T05:54:02.502Z,8.05
2022-09-29T05:59:05.267Z,8.08
2022-09-29T06:04:08.119Z,8.16
2022-09-29T06:09:10.960Z,8.25
2022-09-29T06:14:13.727Z,8.34
2022-09-29T06:19:16.751Z,8.43
2022-09-29T06:24:19.530Z,8.56
2022-09-29T06:29:22.345Z,8.77
2022-09-29T06:34:25.206Z,8.88
2022-09-29T06:39:28.098Z,9.02
2022-09-29T06:44:31.267Z,9.11
2022-09-29T06:49:34.596Z,9.16
2022-09-29T06:54:37.333Z,9.12
2022-09-29T06:59:40.514Z,9.09
2022-09-29T07:04:43.224Z,9.18
2022-09-29T07:09:46.139Z,9.19
2022-09-29T07:14:48.860Z,9.37
2022-09-29T07:19:52.541Z,9.49
2022-09-29T07:24:55.486Z,9.55
2022-09-29T07:30:03.507Z,9.65
2022-09-29T07:35:07.258Z,9.63
2022-09-29T07:40:10.247Z,9.63
2022-09-29T07:45:13.158Z,9.76
2022-09-29T07:50:15.922Z,9.97
2022-09-29T07:55:19.694Z,9.99
2022-09-29T08:00:22.814Z,9.97
2022-09-29T08:05:27.591Z,9.99
2022-09-29T08:10:40.652Z,10.00
2022-09-29T08:15:56.927Z,9.88
2022-09-29T08:21:02.915Z,9.99
2022-09-29T08:26:12.310Z,10.05
2022-09-29T08:31:21.462Z,10.08
2022-09-29T08:36:24.551Z,10.11
2022-09-29T08:41:45.950Z,10.14
2022-09-29T08:47:04.117Z,10.22
2022-09-29T08:52:45.137Z,10.18
2022-09-29T08:57:59.588Z,10.08
2022-09-29T09:03:12.472Z,10.13
2022-09-29T09:08:34.445Z,10.25
2022-09-29T09:13:51.136Z,10.40
2022-09-29T09:19:30.667Z,10.35
2022-09-29T09:25:27.862Z,10.31
2022-09-29T09:30:38.294Z,10.53
2022-09-29T09:35:56.685Z,10.79
2022-09-29T09:41:04.085Z,10.91
2022-09-29T09:46:35.760Z,11.02
2022-09-29T09:57:26.145Z,11.31
2022-09-29T10:02:28.854Z,11.49
2022-09-29T10:07:31.587Z,11.77
2022-09-29T10:12:34.674Z,12.45
2022-09-29T10:17:42.392Z,12.79
2022-09-29T10:22:48.466Z,12.86
2022-09-29T10:27:54.983Z,12.76
2022-09-29T10:33:02.573Z,12.79
2022-09-29T10:38:08.143Z,12.74
2022-09-29T10:43:24.989Z,12.62
2022-09-29T10:48:28.311Z,12.41
2022-09-29T10:53:35.051Z,12.10
2022-09-29T10:58:57.757Z,11.78
2022-09-29T11:04:07.454Z,11.76
2022-09-29T11:09:13.376Z,11.90
2022-09-29T11:14:26.378Z,11.93
2022-09-29T11:19:30.053Z,12.42
2022-09-29T11:24:47.965Z,12.34
2022-09-29T11:30:04.104Z,12.34
2022-09-29T11:35:31.687Z,12.51
2022-09-29T11:40:51.210Z,12.42
2022-09-29T11:46:31.490Z,12.38
2022-09-29T11:52:35.676Z,12.53
2022-09-29T11:58:23.191Z,12.63
2022-09-29T12:04:07.838Z,12.84
2022-09-29T12:09:40.538Z,12.93
2022-09-29T12:20:34.564Z,14.55
2022-09-29T12:25:40.987Z,14.32
2022-09-29T12:30:51.857Z,14.33
2022-09-29T12:36:27.755Z,15.34
2022-09-29T12:41:33.368Z,15.67
2022-09-29T12:46:47.472Z,14.53
2022-09-29T12:51:51.712Z,15.13
2022-09-29T12:57:35.289Z,14.44
2022-09-29T13:03:05.919Z,13.76
2022-09-29T13:09:03.009Z,13.35
2022-09-29T13:14:20.986Z,12.99
2022-09-29T13:19:58.728Z,12.88
2022-09-29T13:25:20.437Z,12.82
2022-09-29T13:30:28.770Z,13.04
2022-09-29T13:35:31.545Z,13.26
2022-09-29T13:40:34.292Z,13.14
2022-09-29T13:45:41.342Z,12.65
2022-09-29T13:50:53.061Z,12.40
2022-09-29T13:56:02.629Z,12.21
2022-09-29T14:01:06.865Z,12.14
2022-09-29T14:06:40.204Z,12.11
2022-09-29T14:11:52.894Z,14.19
2022-09-29T14:17:18.262Z,19.46
2022-09-29T14:22:30.234Z,23.13
2022-09-29T14:27:40.210Z,25.14
2022-09-29T14:32:46.446Z,26.42
2022-09-29T14:38:01.141Z,27.70
2022-09-29T14:43:13.802Z,28.65
2022-09-29T14:48:46.478Z,29.44
2022-09-29T14:54:10.694Z,29.51
2022-09-29T14:59:27.206Z,29.43
2022-09-29T15:04:30.222Z,27.89
2022-09-29T15:09:36.285Z,23.90
2022-09-29T15:14:41.763Z,20.71
2022-09-29T15:20:00.362Z,18.97
2022-09-29T15:25:10.632Z,17.79
2022-09-29T15:30:16.912Z,16.88
2022-09-29T15:35:24.925Z,15.93
2022-09-29T15:40:28.063Z,15.04
2022-09-29T15:45:31.711Z,14.20
2022-09-29T15:50:42.181Z,13.53
2022-09-29T15:55:45.131Z,12.88
2022-09-29T16:00:48.484Z,12.35
2022-09-29T16:06:12.017Z,11.82
2022-09-29T16:11:36.092Z,11.32
2022-09-29T16:16:47.761Z,10.93
2022-09-29T16:21:55.143Z,10.58
2022-09-29T16:26:58.437Z,10.25
2022-09-29T16:32:35.272Z,10.01
2022-09-29T16:37:40.330Z,9.69
2022-09-29T16:42:46.096Z,9.49
2022-09-29T16:47:51.234Z,9.33
2022-09-29T16:52:54.254Z,9.12
2022-09-29T16:58:12.539Z,8.86
2022-09-29T17:03:15.388Z,8.70
2022-09-29T17:08:22.355Z,8.61
2022-09-29T17:13:25.193Z,8.46
2022-09-29T17:18:29.377Z,8.24
2022-09-29T17:23:33.199Z,8.11
2022-09-29T17:28:36.698Z,8.03
2022-09-29T17:33:41.513Z,7.92
2022-09-29T17:38:46.499Z,7.78
2022-09-29T17:43:49.215Z,7.66
2022-09-29T17:48:51.935Z,7.65
2022-09-29T17:53:54.776Z,7.57
2022-09-29T17:58:57.603Z,7.43
2022-09-29T18:04:01.967Z,7.35
2022-09-29T18:09:16.331Z,7.26
2022-09-29T18:14:19.135Z,7.17
2022-09-29T18:19:21.923Z,7.15
2022-09-29T18:24:24.761Z,7.13
2022-09-29T18:29:27.652Z,7.20
2022-09-29T18:34:33.660Z,7.11
2022-09-29T18:39:36.530Z,6.98
2022-09-29T18:44:39.547Z,6.89
2022-09-29T18:49:43.229Z,6.90
2022-09-29T18:54:46.273Z,6.89
2022-09-29T18:59:51.958Z,6.89
2022-09-29T19:04:55.379Z,6.90
2022-09-29T19:09:58.163Z,6.85
2022-09-29T19:15:01.519Z,6.84
2022-09-29T19:20:04.972Z,6.77
2022-09-29T19:25:12.982Z,6.66
2022-09-29T19:30:21.174Z,6.54
2022-09-29T19:35:24.370Z,6.43
2022-09-29T19:40:31.224Z,6.36
2022-09-29T19:45:37.610Z,6.32
2022-09-29T19:50:59.399Z,6.25
2022-09-29T19:56:08.249Z,6.20
2022-09-29T20:01:11.823Z,6.13
2022-09-29T20:06:15.088Z,6.02
2022-09-29T20:11:17.937Z,6.04
2022-09-29T20:16:20.979Z,5.95
2022-09-29T20:21:24.697Z,5.91
2022-09-29T20:26:28.403Z,5.86
2022-09-29T20:31:31.837Z,5.87
2022-09-29T20:36:35.029Z,5.79
2022-09-29T20:41:37.926Z,5.69
2022-09-29T20:46:41.611Z,5.66
2022-09-29T20:51:45.300Z,5.68
2022-09-29T20:56:48.428Z,5.62
2022-09-29T21:01:52.504Z,5.53
2022-09-29T21:06:55.580Z,5.50
2022-09-29T21:11:58.396Z,5.40
2022-09-29T21:17:01.670Z,5.43
2022-09-29T21:22:04.502Z,5.40
2022-09-29T21:27:07.797Z,5.33
2022-09-29T21:32:10.531Z,5.30
2022-09-29T21:37:13.348Z,5.33
2022-09-29T21:42:16.159Z,5.30
2022-09-29T21:47:38.797Z,5.30
2022-09-29T21:52:42.594Z,5.27
2022-09-29T21:57:45.441Z,5.23
2022-09-29T22:02:49.113Z,5.11
2022-09-29T22:07:51.923Z,4.91
2022-09-29T22:12:54.687Z,4.81
2022-09-29T22:17:57.391Z,4.75
2022-09-29T22:23:00.131Z,4.73
2022-09-29T22:28:02.856Z,4.74
2022-09-29T22:33:05.755Z,4.73
2022-09-29T22:38:09.229Z,4.72
2022-09-29T22:43:12.628Z,4.74
2022-09-29T22:48:16.743Z,4.75
2022-09-29T22:53:19.466Z,4.68
2022-09-29T22:58:25.365Z,4.61
2022-09-29T23:03:28.047Z,4.55
2022-09-29T23:08:32.705Z,4.48
2022-09-29T23:13:37.105Z,4.50
2022-09-29T23:18:45.189Z,4.56
2022-09-29T23:23:52.662Z,4.62
2022-09-29T23:28:55.798Z,4.74
2022-09-29T23:33:59.506Z,4.73
2022-09-29T23:39:13.617Z,4.69
2022-09-29T23:44:19.201Z,4.70
2022-09-29T23:49:27.585Z,4.74
2022-09-29T23:54:30.443Z,4.72
2022-09-29T23:59:33.272Z,4.73
